Time;durP1;ratioP1;P1;durP2;ratioP2;P2;SDS_P1;SDS_P2;PMS_P1;PMS_P2;Temp;Humidity;BMP_temperature;BMP_pressure;BME280_temperature;BME280_humidity;BME280_pressure;Samples;Min_cycle;Max_cycle;Signal;HPM_P1;HPM_P2
2022/11/05 00:09:50;;;;;;;4.90;4.23;;;;;;;;;;740707;189;918179;-68
2022/11/05 00:17:19;;;;;;;5.50;4.00;;;;;;;;;;740066;189;915507;-68
2022/11/05 00:19:45;;;;;;;5.73;4.70;;;;;;;;;;745361;186;826744;-68
2022/11/05 00:27:14;;;;;;;4.43;3.70;;;;;;;;;;735944;189;884630;-69
2022/11/05 00:29:40;;;;;;;4.07;3.43;;;;;;;;;;742049;189;897015;-69
2022/11/05 00:32:06;;;;;;;4.63;3.50;;;;;;;;;;740652;189;917943;-69
2022/11/05 00:34:32;;;;;;;3.83;2.80;;;;;;;;;;734624;189;918550;-68
2022/11/05 00:36:58;;;;;;;6.23;3.07;;;;;;;;;;738714;189;919327;-68
2022/11/05 00:39:24;;;;;;;5.60;3.90;;;;;;;;;;749575;186;922310;-68
2022/11/05 00:44:59;;;;;;;3.62;2.90;;;;;;;;;;740606;189;915136;-69
2022/11/05 00:46:47;;;;;;;4.53;3.13;;;;;;;;;;740812;189;918392;-68
2022/11/05 00:51:45;;;;;;;4.30;3.60;;;;;;;;;;736275;189;1111153;-68
2022/11/05 00:54:11;;;;;;;5.37;3.78;;;;;;;;;;737352;189;1122973;-67
2022/11/05 00:56:36;;;;;;;4.83;3.70;;;;;;;;;;741161;189;918920;-69
2022/11/05 00:59:02;;;;;;;4.20;3.10;;;;;;;;;;735807;189;919346;-68
2022/11/05 01:01:28;;;;;;;3.80;3.33;;;;;;;;;;737154;189;919376;-69
2022/11/05 01:03:54;;;;;;;4.70;3.53;;;;;;;;;;743166;189;817177;-69
2022/11/05 01:06:20;;;;;;;6.23;4.93;;;;;;;;;;739203;189;842049;-69
2022/11/05 01:08:46;;;;;;;5.23;3.60;;;;;;;;;;739128;189;919120;-68
2022/11/05 01:11:12;;;;;;;5.55;3.50;;;;;;;;;;736507;191;917064;-68
2022/11/05 01:13:37;;;;;;;3.63;3.07;;;;;;;;;;735789;189;880770;-68
2022/11/05 01:16:03;;;;;;;4.77;3.90;;;;;;;;;;733345;189;924262;-68
2022/11/05 01:18:29;;;;;;;7.03;4.07;;;;;;;;;;733630;190;919198;-68
2022/11/05 01:20:55;;;;;;;4.77;3.10;;;;;;;;;;740364;189;919316;-69
2022/11/05 01:23:21;;;;;;;7.12;3.45;;;;;;;;;;737390;188;918355;-69
2022/11/05 01:25:47;;;;;;;8.70;3.70;;;;;;;;;;735825;190;921231;-68
2022/11/05 01:28:12;;;;;;;4.77;3.70;;;;;;;;;;745576;188;918498;-69
2022/11/05 01:30:38;;;;;;;5.23;3.47;;;;;;;;;;738227;189;915842;-67
2022/11/05 01:33:04;;;;;;;4.60;3.13;;;;;;;;;;731909;189;918888;-68
2022/11/05 01:35:30;;;;;;;6.37;3.33;;;;;;;;;;744774;188;915899;-70
2022/11/05 01:37:56;;;;;;;3.70;2.90;;;;;;;;;;733741;189;920123;-72
2022/11/05 01:40:22;;;;;;;6.17;2.70;;;;;;;;;;737096;189;920765;-68
2022/11/05 01:42:48;;;;;;;4.07;3.00;;;;;;;;;;738237;189;919094;-68
2022/11/05 01:45:15;;;;;;;3.73;2.60;;;;;;;;;;742686;189;823060;-68
2022/11/05 01:47:45;;;;;;;5.60;2.63;;;;;;;;;;737071;189;850953;-69
2022/11/05 01:50:11;;;;;;;8.83;2.70;;;;;;;;;;737549;189;921182;-69
2022/11/05 01:52:36;;;;;;;8.80;2.80;;;;;;;;;;741583;189;915873;-70
2022/11/05 01:55:02;;;;;;;4.63;2.80;;;;;;;;;;741502;188;911125;-69
2022/11/05 01:57:28;;;;;;;4.27;3.23;;;;;;;;;;737541;188;917263;-67
2022/11/05 01:59:54;;;;;;;3.20;2.50;;;;;;;;;;736253;189;913878;-67
2022/11/05 02:02:20;;;;;;;3.60;2.53;;;;;;;;;;739521;186;930623;-68
2022/11/05 02:04:46;;;;;;;3.77;2.30;;;;;;;;;;738076;189;939648;-68
2022/11/05 02:07:12;;;;;;;3.07;2.30;;;;;;;;;;733331;189;912842;-69
2022/11/05 02:09:38;;;;;;;3.67;2.53;;;;;;;;;;733047;189;932193;-67
2022/11/05 02:12:04;;;;;;;5.80;1.97;;;;;;;;;;736295;188;915459;-68
2022/11/05 02:14:30;;;;;;;4.22;2.45;;;;;;;;;;741424;189;918490;-67
2022/11/05 02:16:56;;;;;;;4.03;2.43;;;;;;;;;;740383;189;914166;-69
2022/11/05 02:19:28;;;;;;;4.40;2.73;;;;;;;;;;741017;186;919085;-68
2022/11/05 02:21:57;;;;;;;3.10;2.30;;;;;;;;;;733653;189;919195;-67
2022/11/05 02:24:26;;;;;;;3.72;2.22;;;;;;;;;;733550;190;919003;-69
2022/11/05 02:26:53;;;;;;;3.37;2.10;;;;;;;;;;741788;189;919332;-68
2022/11/05 02:29:19;;;;;;;4.70;2.20;;;;;;;;;;741270;187;922514;-69
2022/11/05 02:31:45;;;;;;;3.33;2.63;;;;;;;;;;740744;187;920964;-69
2022/11/05 02:34:15;;;;;;;3.60;2.23;;;;;;;;;;741630;187;920330;-68
2022/11/05 02:36:45;;;;;;;3.50;2.80;;;;;;;;;;741730;189;919260;-68
2022/11/05 02:39:27;;;;;;;3.53;3.10;;;;;;;;;;737164;188;918364;-69
2022/11/05 02:41:57;;;;;;;3.20;2.60;;;;;;;;;;740362;189;816510;-68
2022/11/05 02:44:24;;;;;;;3.87;2.67;;;;;;;;;;736403;189;919437;-71
2022/11/05 02:46:53;;;;;;;20.87;4.80;;;;;;;;;;736286;189;919289;-67
2022/11/05 02:49:19;;;;;;;4.03;3.23;;;;;;;;;;745380;187;998372;-68
2022/11/05 02:51:46;;;;;;;3.23;2.10;;;;;;;;;;739757;189;898305;-68
2022/11/05 02:54:13;;;;;;;4.73;3.10;;;;;;;;;;736100;189;934452;-67
2022/11/05 02:56:39;;;;;;;3.77;3.07;;;;;;;;;;741916;189;922325;-70
2022/11/05 02:59:05;;;;;;;3.50;2.40;;;;;;;;;;741972;189;912515;-69
2022/11/05 03:01:30;;;;;;;3.43;2.80;;;;;;;;;;739885;188;919737;-69
2022/11/05 03:03:57;;;;;;;3.23;2.93;;;;;;;;;;736270;189;916500;-68
2022/11/05 03:06:25;;;;;;;3.80;2.90;;;;;;;;;;736358;189;917736;-70
2022/11/05 03:09:05;;;;;;;3.67;3.03;;;;;;;;;;735432;189;918493;-68
2022/11/05 03:11:31;;;;;;;3.37;2.70;;;;;;;;;;739516;188;923882;-69
2022/11/05 03:13:57;;;;;;;3.20;2.60;;;;;;;;;;740023;188;818040;-67
2022/11/05 03:16:29;;;;;;;4.17;3.00;;;;;;;;;;746854;188;816812;-67
2022/11/05 03:18:58;;;;;;;3.63;3.23;;;;;;;;;;740631;188;919583;-69
2022/11/05 03:21:23;;;;;;;3.63;2.43;;;;;;;;;;733878;188;1738372;-67
2022/11/05 03:23:51;;;;;;;4.60;3.60;;;;;;;;;;736315;189;919423;-68
2022/11/05 03:26:21;;;;;;;4.00;3.60;;;;;;;;;;736753;189;891333;-68
2022/11/05 03:28:46;;;;;;;4.80;3.93;;;;;;;;;;737257;189;916914;-67
2022/11/05 03:31:12;;;;;;;5.50;3.57;;;;;;;;;;737540;189;919726;-69
2022/11/05 03:33:39;;;;;;;4.95;3.95;;;;;;;;;;739040;189;940357;-68
2022/11/05 03:36:05;;;;;;;5.73;3.70;;;;;;;;;;741243;186;890806;-69
2022/11/05 03:38:32;;;;;;;4.70;3.70;;;;;;;;;;738362;188;919963;-68
2022/11/05 03:40:58;;;;;;;5.33;3.90;;;;;;;;;;733966;189;919180;-68
2022/11/05 03:43:24;;;;;;;4.17;3.53;;;;;;;;;;740099;189;920507;-69
2022/11/05 03:45:49;;;;;;;8.60;4.43;;;;;;;;;;736517;189;893390;-68
2022/11/05 03:48:15;;;;;;;4.10;3.70;;;;;;;;;;736581;189;916416;-68
2022/11/05 03:50:44;;;;;;;6.07;4.77;;;;;;;;;;738724;189;919148;-68
2022/11/05 03:53:10;;;;;;;4.50;4.10;;;;;;;;;;736714;188;934734;-69
2022/11/05 03:55:36;;;;;;;4.83;4.33;;;;;;;;;;737042;186;918154;-69
2022/11/05 03:58:03;;;;;;;4.35;3.83;;;;;;;;;;737696;188;916156;-68
2022/11/05 04:00:27;;;;;;;6.53;4.40;;;;;;;;;;740069;190;917387;-69
2022/11/05 04:02:53;;;;;;;4.23;3.70;;;;;;;;;;739729;188;919126;-67
2022/11/05 04:05:19;;;;;;;4.43;4.03;;;;;;;;;;741334;188;917501;-67
2022/11/05 04:15:20;;;;;;;5.37;3.70;;;;;;;;;;742465;189;816602;-70
2022/11/05 04:17:45;;;;;;;4.50;3.93;;;;;;;;;;743115;189;918997;-69
2022/11/05 04:25:14;;;;;;;3.40;3.00;;;;;;;;;;735493;189;923949;-69
2022/11/05 04:27:40;;;;;;;4.00;3.50;;;;;;;;;;740617;189;901827;-68
2022/11/05 04:32:38;;;;;;;4.10;3.63;;;;;;;;;;737718;188;918132;-68
2022/11/05 04:35:04;;;;;;;4.30;3.50;;;;;;;;;;734543;189;918662;-68
2022/11/05 04:37:30;;;;;;;5.40;3.40;;;;;;;;;;745153;188;920419;-69
2022/11/05 04:39:55;;;;;;;3.37;2.90;;;;;;;;;;737762;189;818186;-68
2022/11/05 04:42:21;;;;;;;4.40;3.00;;;;;;;;;;738393;189;818472;-70
2022/11/05 04:44:47;;;;;;;4.00;3.43;;;;;;;;;;740253;189;919387;-67
2022/11/05 04:47:13;;;;;;;3.40;2.97;;;;;;;;;;735556;189;1021627;-70
2022/11/05 04:49:39;;;;;;;4.50;3.50;;;;;;;;;;736425;189;919102;-70
2022/11/05 04:52:05;;;;;;;3.90;3.17;;;;;;;;;;737478;189;919028;-68
2022/11/05 04:54:31;;;;;;;4.23;3.23;;;;;;;;;;734869;190;913471;-67
2022/11/05 04:56:57;;;;;;;3.33;2.70;;;;;;;;;;733321;188;917015;-69
2022/11/05 04:59:22;;;;;;;3.53;2.80;;;;;;;;;;741051;186;918681;-69
2022/11/05 05:01:50;;;;;;;10.33;2.77;;;;;;;;;;741758;187;920607;-67
2022/11/05 05:04:16;;;;;;;4.35;3.25;;;;;;;;;;736098;189;918749;-68
2022/11/05 05:06:42;;;;;;;3.60;3.00;;;;;;;;;;734778;190;919079;-68
2022/11/05 05:09:08;;;;;;;3.30;2.97;;;;;;;;;;745064;189;917601;-68
2022/11/05 05:11:34;;;;;;;4.07;3.33;;;;;;;;;;732385;189;1030541;-68
2022/11/05 05:13:59;;;;;;;2.90;2.33;;;;;;;;;;739348;187;917186;-67
2022/11/05 05:16:25;;;;;;;3.90;2.83;;;;;;;;;;738096;189;917747;-68
2022/11/05 05:18:51;;;;;;;3.40;2.83;;;;;;;;;;751043;186;918348;-68
2022/11/05 05:23:49;;;;;;;3.53;2.78;;;;;;;;;;739229;189;919097;-69
2022/11/05 05:26:14;;;;;;;3.47;2.73;;;;;;;;;;738205;189;918937;-68
2022/11/05 05:28:40;;;;;;;3.53;2.80;;;;;;;;;;735924;189;919067;-70
2022/11/05 05:31:06;;;;;;;3.27;2.60;;;;;;;;;;740692;188;920082;-68
2022/11/05 05:33:32;;;;;;;3.75;3.30;;;;;;;;;;740894;189;919087;-68
2022/11/05 05:35:58;;;;;;;3.10;2.50;;;;;;;;;;736191;189;918857;-68
2022/11/05 05:38:24;;;;;;;5.80;2.53;;;;;;;;;;739777;188;925613;-67
2022/11/05 05:40:49;;;;;;;4.10;2.70;;;;;;;;;;736625;189;922129;-69
2022/11/05 05:43:15;;;;;;;2.77;2.40;;;;;;;;;;738558;189;919747;-68
2022/11/05 05:45:41;;;;;;;4.25;3.05;;;;;;;;;;737900;189;917928;-69
2022/11/05 05:48:07;;;;;;;2.80;2.30;;;;;;;;;;737577;189;918143;-69
2022/11/05 05:50:33;;;;;;;3.73;2.60;;;;;;;;;;743862;187;903323;-67
2022/11/05 05:52:59;;;;;;;2.97;2.67;;;;;;;;;;731605;188;1733663;-68
2022/11/05 05:55:25;;;;;;;3.47;2.23;;;;;;;;;;738294;189;919778;-68
2022/11/05 05:57:50;;;;;;;3.67;2.50;;;;;;;;;;743880;188;915874;-69
2022/11/05 06:00:16;;;;;;;8.27;2.60;;;;;;;;;;734793;189;919341;-69
2022/11/05 06:02:42;;;;;;;3.37;2.50;;;;;;;;;;736696;188;918034;-68
2022/11/05 06:05:08;;;;;;;3.70;2.73;;;;;;;;;;738476;188;816432;-68
2022/11/05 06:07:34;;;;;;;4.20;3.03;;;;;;;;;;737938;189;916933;-68
2022/11/05 06:10:00;;;;;;;3.33;2.50;;;;;;;;;;734682;189;924272;-68
2022/11/05 06:12:26;;;;;;;3.83;2.90;;;;;;;;;;736479;189;918508;-67
2022/11/05 06:14:51;;;;;;;4.30;3.03;;;;;;;;;;743106;188;921228;-68
2022/11/05 06:17:17;;;;;;;4.13;3.53;;;;;;;;;;735322;188;908392;-68
2022/11/05 06:19:43;;;;;;;3.20;2.67;;;;;;;;;;735640;189;818441;-67
2022/11/05 06:22:09;;;;;;;3.67;2.70;;;;;;;;;;741964;189;914956;-68
2022/11/05 06:24:35;;;;;;;3.10;2.80;;;;;;;;;;738514;189;878997;-68
2022/11/05 06:27:01;;;;;;;3.70;2.80;;;;;;;;;;736753;189;920378;-69
2022/11/05 06:29:26;;;;;;;3.37;2.90;;;;;;;;;;739992;188;817732;-68
2022/11/05 06:31:52;;;;;;;3.20;2.53;;;;;;;;;;752900;184;634363;-67
2022/11/05 06:34:18;;;;;;;5.20;2.70;;;;;;;;;;737705;187;815573;-68
2022/11/05 06:36:44;;;;;;;4.50;2.75;;;;;;;;;;737186;189;923774;-68
2022/11/05 06:39:10;;;;;;;4.17;3.13;;;;;;;;;;740824;189;914762;-68
2022/11/05 06:41:36;;;;;;;3.80;3.13;;;;;;;;;;735879;188;1016309;-68
2022/11/05 06:44:01;;;;;;;5.53;3.40;;;;;;;;;;738666;188;815828;-69
2022/11/05 06:46:27;;;;;;;4.00;3.40;;;;;;;;;;742887;189;731185;-68
2022/11/05 06:48:53;;;;;;;4.20;2.80;;;;;;;;;;736106;189;858991;-68
2022/11/05 06:51:19;;;;;;;4.53;3.30;;;;;;;;;;735567;189;934596;-67
2022/11/05 06:53:45;;;;;;;5.90;3.00;;;;;;;;;;741824;189;875549;-68
2022/11/05 06:56:11;;;;;;;4.23;3.17;;;;;;;;;;736007;189;921173;-67
2022/11/05 06:58:36;;;;;;;8.90;2.50;;;;;;;;;;738709;188;873988;-67
2022/11/05 07:01:02;;;;;;;3.43;3.03;;;;;;;;;;742177;188;814644;-67
2022/11/05 07:03:28;;;;;;;4.63;3.30;;;;;;;;;;742219;189;813928;-68
2022/11/05 07:05:54;;;;;;;4.67;3.07;;;;;;;;;;737835;189;918549;-68
2022/11/05 07:08:20;;;;;;;3.57;2.83;;;;;;;;;;734899;189;927159;-67
2022/11/05 07:10:46;;;;;;;4.80;3.03;;;;;;;;;;745487;187;903954;-67
2022/11/05 07:13:11;;;;;;;3.80;2.60;;;;;;;;;;736562;189;919346;-67
2022/11/05 07:15:37;;;;;;;3.80;2.87;;;;;;;;;;737230;189;939983;-67
2022/11/05 07:18:04;;;;;;;3.23;2.57;;;;;;;;;;743734;189;624538;-67
2022/11/05 07:20:29;;;;;;;3.10;2.80;;;;;;;;;;735414;189;919798;-68
2022/11/05 07:22:59;;;;;;;4.83;3.30;;;;;;;;;;737556;189;746816;-69
2022/11/05 07:25:25;;;;;;;3.53;2.83;;;;;;;;;;735171;189;815678;-69
2022/11/05 07:27:51;;;;;;;3.90;2.93;;;;;;;;;;741643;189;714396;-72
2022/11/05 07:30:16;;;;;;;2.77;2.30;;;;;;;;;;736906;188;920627;-69
2022/11/05 07:32:42;;;;;;;3.75;2.58;;;;;;;;;;738983;188;918392;-67
2022/11/05 07:35:08;;;;;;;3.77;2.67;;;;;;;;;;742094;189;918678;-69
2022/11/05 07:37:40;;;;;;;2.90;2.47;;;;;;;;;;737005;187;918943;-69
2022/11/05 07:40:06;;;;;;;5.25;2.78;;;;;;;;;;741489;189;917994;-70
2022/11/05 07:42:32;;;;;;;4.20;3.07;;;;;;;;;;743685;188;816642;-69
2022/11/05 07:44:58;;;;;;;3.50;2.90;;;;;;;;;;741624;189;815848;-68
2022/11/05 07:47:24;;;;;;;3.20;2.50;;;;;;;;;;740389;189;619338;-69
2022/11/05 07:49:50;;;;;;;4.33;3.00;;;;;;;;;;736010;189;814305;-69
2022/11/05 07:52:15;;;;;;;3.63;2.93;;;;;;;;;;745811;188;919457;-67
2022/11/05 07:54:41;;;;;;;4.25;3.35;;;;;;;;;;734112;189;906422;-70
2022/11/05 07:57:07;;;;;;;3.73;2.97;;;;;;;;;;734503;189;1019938;-68
2022/11/05 07:59:33;;;;;;;3.30;2.50;;;;;;;;;;739452;189;920755;-69
2022/11/05 08:01:59;;;;;;;4.23;2.97;;;;;;;;;;739842;189;623128;-68
2022/11/05 08:04:25;;;;;;;4.40;2.80;;;;;;;;;;740798;188;814729;-68
2022/11/05 08:06:50;;;;;;;4.10;3.00;;;;;;;;;;737763;188;917465;-68
2022/11/05 08:09:16;;;;;;;4.37;3.37;;;;;;;;;;740537;189;918320;-68
2022/11/05 08:11:42;;;;;;;3.93;3.47;;;;;;;;;;738188;189;919519;-70
2022/11/05 08:14:08;;;;;;;7.17;3.17;;;;;;;;;;736697;189;919548;-68
2022/11/05 08:16:34;;;;;;;9.80;3.30;;;;;;;;;;744419;189;918785;-70
2022/11/05 08:19:00;;;;;;;3.87;2.90;;;;;;;;;;734962;189;886052;-68
2022/11/05 08:21:25;;;;;;;2.97;2.37;;;;;;;;;;738137;189;796780;-68
2022/11/05 08:23:51;;;;;;;2.83;2.23;;;;;;;;;;746344;189;630585;-68
2022/11/05 08:26:18;;;;;;;4.07;3.33;;;;;;;;;;736687;189;818179;-67
2022/11/05 08:28:43;;;;;;;13.17;3.40;;;;;;;;;;736480;189;822187;-68
2022/11/05 08:31:09;;;;;;;4.17;2.97;;;;;;;;;;739939;189;628670;-69
2022/11/05 08:33:35;;;;;;;4.20;3.03;;;;;;;;;;753462;186;635093;-70
2022/11/05 08:36:01;;;;;;;5.50;3.80;;;;;;;;;;740330;188;619100;-68
2022/11/05 08:38:26;;;;;;;3.37;2.47;;;;;;;;;;738581;189;803092;-70
2022/11/05 08:40:52;;;;;;;5.03;2.03;;;;;;;;;;740218;189;920103;-68
2022/11/05 08:43:18;;;;;;;3.23;2.43;;;;;;;;;;735123;189;918969;-70
2022/11/05 08:45:44;;;;;;;3.30;2.50;;;;;;;;;;732234;189;1250605;-68
2022/11/05 08:48:10;;;;;;;4.00;2.70;;;;;;;;;;744629;187;628348;-70
2022/11/05 08:50:36;;;;;;;3.80;2.70;;;;;;;;;;743156;188;849793;-68
2022/11/05 08:53:02;;;;;;;4.77;3.10;;;;;;;;;;736475;189;912503;-68
2022/11/05 08:55:28;;;;;;;4.37;2.47;;;;;;;;;;739548;189;913921;-67
2022/11/05 08:57:55;;;;;;;3.30;2.50;;;;;;;;;;754292;185;992099;-68
2022/11/05 09:00:20;;;;;;;3.17;2.43;;;;;;;;;;739255;187;1018880;-70
2022/11/05 09:02:46;;;;;;;3.03;2.17;;;;;;;;;;736016;188;919219;-67
2022/11/05 09:05:12;;;;;;;3.30;2.13;;;;;;;;;;745276;188;817188;-66
2022/11/05 09:07:38;;;;;;;2.73;2.00;;;;;;;;;;737072;189;931950;-68
2022/11/05 09:10:04;;;;;;;3.10;2.20;;;;;;;;;;736355;189;919240;-68
2022/11/05 09:12:30;;;;;;;3.80;1.97;;;;;;;;;;740898;189;918514;-67
2022/11/05 09:14:56;;;;;;;2.50;1.67;;;;;;;;;;736938;189;817154;-67
2022/11/05 09:17:22;;;;;;;2.90;1.67;;;;;;;;;;737803;189;918814;-68
2022/11/05 09:19:47;;;;;;;3.23;2.13;;;;;;;;;;738836;189;919322;-68
2022/11/05 09:22:13;;;;;;;4.53;2.10;;;;;;;;;;731716;189;1040025;-67
2022/11/05 09:24:39;;;;;;;3.20;2.17;;;;;;;;;;737203;189;918046;-67
2022/11/05 09:27:05;;;;;;;3.97;2.60;;;;;;;;;;740056;188;1019898;-69
2022/11/05 09:29:31;;;;;;;5.57;2.70;;;;;;;;;;740758;188;921597;-67
2022/11/05 09:31:57;;;;;;;5.83;3.10;;;;;;;;;;740246;187;922131;-70
2022/11/05 09:34:23;;;;;;;2.60;1.77;;;;;;;;;;737194;189;801962;-62
2022/11/05 09:36:49;;;;;;;13.60;4.10;;;;;;;;;;740860;189;817795;-67
2022/11/05 09:39:15;;;;;;;3.57;2.60;;;;;;;;;;739071;188;1011156;-67
2022/11/05 09:41:42;;;;;;;12.10;8.47;;;;;;;;;;735249;189;918942;-65
2022/11/05 09:44:10;;;;;;;6.07;4.30;;;;;;;;;;742873;188;817086;-69
2022/11/05 09:46:37;;;;;;;6.83;4.73;;;;;;;;;;747844;185;816983;-67
2022/11/05 09:49:03;;;;;;;9.87;5.57;;;;;;;;;;736435;189;915621;-66
2022/11/05 09:51:29;;;;;;;74.50;39.90;;;;;;;;;;734523;189;919554;-68
2022/11/05 09:53:55;;;;;;;21.90;10.70;;;;;;;;;;738628;189;921828;-66
2022/11/05 09:56:23;;;;;;;12.50;7.93;;;;;;;;;;734489;189;917730;-67
2022/11/05 09:58:50;;;;;;;7.27;4.60;;;;;;;;;;732554;189;1029525;-68
2022/11/05 10:01:16;;;;;;;9.57;4.03;;;;;;;;;;743784;187;920385;-66
2022/11/05 10:03:45;;;;;;;8.57;3.40;;;;;;;;;;745907;187;918338;-68
2022/11/05 10:06:11;;;;;;;4.33;2.37;;;;;;;;;;738646;188;938029;-67
2022/11/05 10:08:37;;;;;;;3.50;2.78;;;;;;;;;;736570;189;855041;-67
2022/11/05 10:11:03;;;;;;;8.07;4.73;;;;;;;;;;740582;189;920562;-68
2022/11/05 10:13:29;;;;;;;69.63;48.60;;;;;;;;;;736665;189;819567;-68
2022/11/05 10:15:57;;;;;;;27.27;16.70;;;;;;;;;;741452;187;851141;-69
2022/11/05 10:18:24;;;;;;;5.87;2.80;;;;;;;;;;739548;189;838217;-68
2022/11/05 10:20:50;;;;;;;3.70;2.40;;;;;;;;;;741970;189;815862;-69
2022/11/05 10:23:15;;;;;;;15.10;7.40;;;;;;;;;;739328;188;817556;-67
2022/11/05 10:25:41;;;;;;;10.50;5.70;;;;;;;;;;735258;189;917216;-67
2022/11/05 10:28:07;;;;;;;12.17;5.53;;;;;;;;;;753659;179;816278;-75
2022/11/05 10:30:33;;;;;;;10.23;6.10;;;;;;;;;;748371;186;701399;-74
2022/11/05 10:32:59;;;;;;;8.23;5.47;;;;;;;;;;750268;187;628198;-75
2022/11/05 10:35:25;;;;;;;21.57;7.57;;;;;;;;;;738556;190;922222;-74
2022/11/05 10:37:54;;;;;;;5.70;2.90;;;;;;;;;;726846;189;915903;-74
2022/11/05 10:40:22;;;;;;;2.00;1.05;;;;;;;;;;731274;190;1100086;-74
2022/11/05 10:42:51;;;;;;;2.47;1.00;;;;;;;;;;731045;190;990834;-74
2022/11/05 10:45:28;;;;;;;3.20;1.70;;;;;;;;;;736966;187;1014274;-75
2022/11/05 10:47:54;;;;;;;3.00;1.50;;;;;;;;;;734510;190;919948;-76
2022/11/05 10:50:21;;;;;;;1.90;0.90;;;;;;;;;;730517;191;920871;-75
2022/11/05 10:52:56;;;;;;;2.80;1.23;;;;;;;;;;730675;188;918273;-75
2022/11/05 10:55:37;;;;;;;2.93;1.10;;;;;;;;;;729873;190;918367;-75
2022/11/05 10:58:06;;;;;;;3.95;1.60;;;;;;;;;;726581;190;1028355;-75
2022/11/05 11:00:32;;;;;;;2.63;1.00;;;;;;;;;;737549;187;918582;-75
2022/11/05 11:02:58;;;;;;;2.23;1.10;;;;;;;;;;734112;190;728416;-76
2022/11/05 11:05:26;;;;;;;1.90;1.10;;;;;;;;;;735093;191;923442;-75
2022/11/05 11:07:56;;;;;;;3.33;2.23;;;;;;;;;;736549;189;919139;-75
2022/11/05 11:10:22;;;;;;;19.70;9.87;;;;;;;;;;731220;189;895294;-75
2022/11/05 11:12:48;;;;;;;6.00;3.95;;;;;;;;;;736980;189;827355;-75
2022/11/05 11:15:13;;;;;;;3.10;1.90;;;;;;;;;;728963;187;919286;-74
2022/11/05 11:17:39;;;;;;;3.23;1.40;;;;;;;;;;741766;187;816956;-76
2022/11/05 11:20:20;;;;;;;5.83;2.57;;;;;;;;;;735754;190;929653;-74
2022/11/05 11:22:49;;;;;;;2.67;1.30;;;;;;;;;;735650;189;919497;-75
2022/11/05 11:25:24;;;;;;;2.80;1.80;;;;;;;;;;729600;187;825163;-75
2022/11/05 11:27:49;;;;;;;1.90;1.07;;;;;;;;;;731248;190;919533;-75
2022/11/05 11:30:16;;;;;;;3.05;1.67;;;;;;;;;;738009;186;918175;-73
2022/11/05 11:32:41;;;;;;;3.22;1.40;;;;;;;;;;738352;187;971688;-75
2022/11/05 11:35:07;;;;;;;3.03;2.00;;;;;;;;;;733137;190;916027;-75
2022/11/05 11:37:33;;;;;;;2.63;1.43;;;;;;;;;;736517;190;919030;-74
2022/11/05 11:39:59;;;;;;;7.33;4.70;;;;;;;;;;731286;188;819568;-75
2022/11/05 11:42:26;;;;;;;4.17;2.13;;;;;;;;;;731389;191;816051;-74
2022/11/05 11:44:52;;;;;;;2.47;1.40;;;;;;;;;;733943;188;919217;-75
2022/11/05 11:47:18;;;;;;;4.67;2.17;;;;;;;;;;729281;190;918155;-75
2022/11/05 11:49:44;;;;;;;4.70;2.85;;;;;;;;;;733874;189;919566;-75
2022/11/05 11:52:10;;;;;;;3.80;2.33;;;;;;;;;;730568;190;918516;-75
2022/11/05 11:54:36;;;;;;;2.10;1.30;;;;;;;;;;741247;186;917968;-75
2022/11/05 11:57:02;;;;;;;4.80;2.30;;;;;;;;;;731787;189;918518;-75
2022/11/05 11:59:27;;;;;;;7.30;2.90;;;;;;;;;;728529;190;816488;-75
2022/11/05 12:01:57;;;;;;;2.57;1.50;;;;;;;;;;733035;191;919309;-75
2022/11/05 12:04:39;;;;;;;4.00;2.20;;;;;;;;;;727552;189;917367;-75
2022/11/05 12:07:06;;;;;;;9.50;1.80;;;;;;;;;;732028;190;919307;-75
2022/11/05 12:09:32;;;;;;;6.43;4.07;;;;;;;;;;725663;190;883575;-74
2022/11/05 12:12:02;;;;;;;4.23;1.60;;;;;;;;;;733770;191;898269;-77
2022/11/05 12:14:38;;;;;;;3.40;1.90;;;;;;;;;;711161;198;919975;-76
2022/11/05 12:17:06;;;;;;;3.33;1.53;;;;;;;;;;735790;190;918403;-77
2022/11/05 12:19:38;;;;;;;2.90;1.33;;;;;;;;;;730802;191;919251;-76
2022/11/05 12:22:05;;;;;;;3.60;2.07;;;;;;;;;;731211;189;817462;-76
2022/11/05 12:24:46;;;;;;;2.50;1.50;;;;;;;;;;738586;189;919281;-75
2022/11/05 12:27:18;;;;;;;3.17;1.90;;;;;;;;;;735752;190;817493;-76
2022/11/05 12:29:46;;;;;;;3.20;1.67;;;;;;;;;;732401;188;921689;-75
2022/11/05 12:32:16;;;;;;;3.13;1.57;;;;;;;;;;728649;190;815377;-75
2022/11/05 12:34:45;;;;;;;2.90;1.87;;;;;;;;;;734570;189;903197;-75
2022/11/05 12:37:17;;;;;;;2.30;1.07;;;;;;;;;;740892;189;815994;-75
2022/11/05 12:39:46;;;;;;;2.90;1.40;;;;;;;;;;741440;190;916204;-75
2022/11/05 12:42:29;;;;;;;4.70;2.07;;;;;;;;;;734074;191;1023461;-76
2022/11/05 12:44:54;;;;;;;1.87;0.80;;;;;;;;;;723885;191;1021981;-75
2022/11/05 12:47:23;;;;;;;2.00;1.23;;;;;;;;;;735066;191;940132;-75
2022/11/05 12:49:56;;;;;;;3.15;1.83;;;;;;;;;;732186;190;918650;-75
2022/11/05 12:52:26;;;;;;;3.90;2.30;;;;;;;;;;736726;190;714182;-76
2022/11/05 12:54:53;;;;;;;2.37;1.10;;;;;;;;;;734115;190;1021125;-75
2022/11/05 12:57:19;;;;;;;1.97;1.00;;;;;;;;;;736097;189;777340;-75
2022/11/05 12:59:45;;;;;;;3.33;1.80;;;;;;;;;;736477;190;827324;-75
2022/11/05 13:02:14;;;;;;;5.50;3.50;;;;;;;;;;733660;190;617639;-75
2022/11/05 13:04:40;;;;;;;3.03;1.20;;;;;;;;;;737126;189;636299;-76
2022/11/05 13:07:06;;;;;;;3.00;1.70;;;;;;;;;;737688;191;919064;-76
2022/11/05 13:09:35;;;;;;;6.40;2.47;;;;;;;;;;736552;189;623831;-76
2022/11/05 13:12:01;;;;;;;2.37;1.23;;;;;;;;;;734122;190;628198;-76
2022/11/05 13:14:28;;;;;;;2.00;1.30;;;;;;;;;;735932;189;812731;-75
2022/11/05 13:16:56;;;;;;;3.13;1.37;;;;;;;;;;734891;191;916876;-75
2022/11/05 13:19:21;;;;;;;2.17;1.27;;;;;;;;;;747777;186;738304;-75
2022/11/05 13:21:47;;;;;;;2.97;1.30;;;;;;;;;;729527;189;918533;-75
2022/11/05 13:24:15;;;;;;;2.27;1.30;;;;;;;;;;736460;191;714142;-76
2022/11/05 13:26:41;;;;;;;2.80;1.70;;;;;;;;;;740272;190;822387;-76
2022/11/05 13:29:08;;;;;;;2.77;1.40;;;;;;;;;;736571;189;917620;-76
2022/11/05 13:31:34;;;;;;;10.40;1.33;;;;;;;;;;732013;191;919601;-76
2022/11/05 13:34:00;;;;;;;3.07;1.33;;;;;;;;;;732441;190;918666;-75
2022/11/05 13:38:59;;;;;;;3.80;1.97;;;;;;;;;;730021;188;919263;-76
2022/11/05 13:41:30;;;;;;;3.80;1.80;;;;;;;;;;734742;190;919233;-76
2022/11/05 13:44:02;;;;;;;2.90;1.37;;;;;;;;;;736429;189;1021564;-76
2022/11/05 13:46:28;;;;;;;5.37;3.80;;;;;;;;;;735784;190;917452;-75
2022/11/05 13:48:54;;;;;;;6.30;2.00;;;;;;;;;;734812;190;917481;-75
2022/11/05 13:51:25;;;;;;;8.03;3.80;;;;;;;;;;734203;189;1029408;-75
2022/11/05 13:53:53;;;;;;;10.27;4.47;;;;;;;;;;732813;190;1026054;-75
2022/11/05 13:56:20;;;;;;;6.23;2.50;;;;;;;;;;739778;186;875076;-75
2022/11/05 13:59:00;;;;;;;5.90;2.75;;;;;;;;;;731633;190;1020650;-75
2022/11/05 14:01:46;;;;;;;5.10;3.13;;;;;;;;;;734010;190;920167;-75
2022/11/05 14:04:13;;;;;;;12.77;5.60;;;;;;;;;;733258;187;919385;-75
2022/11/05 14:06:39;;;;;;;5.80;3.00;;;;;;;;;;740280;189;648058;-75
2022/11/05 14:09:06;;;;;;;7.83;6.40;;;;;;;;;;740531;188;802780;-76
2022/11/05 14:11:32;;;;;;;7.20;6.57;;;;;;;;;;727322;191;936212;-75
2022/11/05 14:13:58;;;;;;;4.00;1.70;;;;;;;;;;730998;189;918695;-75
2022/11/05 14:16:24;;;;;;;2.83;1.93;;;;;;;;;;731686;190;815463;-76
2022/11/05 14:18:51;;;;;;;3.33;1.90;;;;;;;;;;731649;190;815741;-75
2022/11/05 14:21:23;;;;;;;7.63;3.27;;;;;;;;;;727826;189;918798;-78
2022/11/05 14:23:49;;;;;;;9.47;4.20;;;;;;;;;;733437;189;900324;-76
2022/11/05 14:26:18;;;;;;;5.00;2.27;;;;;;;;;;737891;190;816617;-76
2022/11/05 14:28:45;;;;;;;4.80;3.30;;;;;;;;;;734139;191;832454;-75
2022/11/05 14:31:17;;;;;;;4.00;2.40;;;;;;;;;;729975;190;918972;-75
2022/11/05 14:33:42;;;;;;;9.70;3.90;;;;;;;;;;731874;190;914264;-75
2022/11/05 14:36:14;;;;;;;3.17;2.20;;;;;;;;;;737468;190;811955;-76
2022/11/05 14:38:45;;;;;;;3.00;1.70;;;;;;;;;;736515;188;915414;-75
2022/11/05 14:41:11;;;;;;;2.77;1.80;;;;;;;;;;730277;189;915757;-75
2022/11/05 14:43:37;;;;;;;10.93;2.87;;;;;;;;;;727575;190;813498;-75
2022/11/05 14:46:04;;;;;;;4.60;3.10;;;;;;;;;;732932;190;910760;-76
2022/11/05 14:48:36;;;;;;;10.33;3.67;;;;;;;;;;732783;190;918748;-75
2022/11/05 14:51:00;;;;;;;6.13;4.70;;;;;;;;;;734485;190;919561;-76
2022/11/05 14:53:29;;;;;;;4.73;2.80;;;;;;;;;;732098;191;815947;-75
2022/11/05 14:55:55;;;;;;;4.00;2.20;;;;;;;;;;735348;190;919358;-75
2022/11/05 14:58:24;;;;;;;4.07;2.50;;;;;;;;;;735671;190;921148;-74
2022/11/05 15:00:49;;;;;;;4.90;3.33;;;;;;;;;;734262;189;919705;-75
2022/11/05 15:03:35;;;;;;;8.32;2.35;;;;;;;;;;733442;187;806678;-75
2022/11/05 15:06:03;;;;;;;5.83;2.60;;;;;;;;;;725899;187;816963;-75
2022/11/05 15:08:29;;;;;;;6.37;2.70;;;;;;;;;;723417;195;815896;-75
2022/11/05 15:10:56;;;;;;;4.10;2.30;;;;;;;;;;735180;190;802785;-75